Cr-1, Brazil
Current Conditions -  °F | °C
As of 6:00 AM on Sunday 21 Dec 2014 (Local Time) from SBCO Reporting Station
Light Rain Light Rain  
Wind Chill: 70°   Ceiling: 1000
Heat Index: 70°   Visibility: 5mi
Dew Point: 70°   Wind: 9mph
Humidity: 100%   Direction: 270°W
Pressure: 29.68"   Gusts: NA
Location:  30.33°S, 50.4°W
Report Text: SBCO 210800Z 27008KT 8000 -RA BKN010 SCT025 OVC080 21/21 Q1005
Loading
Personal Weather Stations






























Interactive Weather Map New forecast layout! Learn more

10-Day Weather Forecast

Advertisements
Track Severe Weather on mobile